Time;durP1;ratioP1;P1;durP2;ratioP2;P2;SDS_P1;SDS_P2;PMS_P1;PMS_P2;Temp;Humidity;BMP_temperature;BMP_pressure;BME280_temperature;BME280_humidity;BME280_pressure;Samples;Min_cycle;Max_cycle;Signal;HPM_P1;HPM_P2
2022/03/20 00:01:15;;;;;;;7.80;3.47;;;;;;;;;;5094712;28;20960;-71
2022/03/20 00:03:41;;;;;;;4.63;3.17;;;;;;;;;;5095101;28;20894;-72
2022/03/20 00:06:07;;;;;;;6.07;3.20;;;;;;;;;;5094858;28;20457;-71
2022/03/20 00:08:33;;;;;;;14.63;3.90;;;;;;;;;;5094713;28;20463;-74
2022/03/20 00:11:01;;;;;;;6.30;3.93;;;;;;;;;;5094626;28;20432;-71
2022/03/20 00:13:27;;;;;;;4.87;3.27;;;;;;;;;;5094742;28;20499;-72
2022/03/20 00:15:54;;;;;;;6.07;3.73;;;;;;;;;;5094794;28;20543;-73
2022/03/20 00:18:23;;;;;;;6.70;3.40;;;;;;;;;;5094685;28;20410;-73
2022/03/20 00:20:50;;;;;;;7.63;3.90;;;;;;;;;;5094305;28;20443;-69
2022/03/20 00:23:18;;;;;;;5.83;3.63;;;;;;;;;;5094503;28;20471;-71
2022/03/20 00:25:45;;;;;;;9.60;3.83;;;;;;;;;;5094642;28;20410;-70
2022/03/20 00:28:12;;;;;;;7.47;3.90;;;;;;;;;;5094613;28;20409;-69
2022/03/20 00:30:38;;;;;;;6.43;4.60;;;;;;;;;;5094010;28;20421;-70
2022/03/20 00:33:04;;;;;;;5.57;3.60;;;;;;;;;;5094546;28;20402;-70
2022/03/20 00:35:31;;;;;;;5.70;3.97;;;;;;;;;;5094234;28;20409;-70
2022/03/20 00:37:57;;;;;;;5.70;3.90;;;;;;;;;;5094428;28;20960;-73
2022/03/20 00:40:23;;;;;;;5.77;4.13;;;;;;;;;;5093874;28;20820;-71
2022/03/20 00:42:50;;;;;;;11.17;4.00;;;;;;;;;;5093188;28;20497;-73
2022/03/20 00:45:16;;;;;;;5.50;4.03;;;;;;;;;;5094205;28;20413;-70
2022/03/20 00:47:42;;;;;;;5.40;3.80;;;;;;;;;;5094067;28;20536;-71
2022/03/20 00:50:08;;;;;;;8.17;4.40;;;;;;;;;;5093679;28;20491;-71
2022/03/20 00:52:34;;;;;;;8.37;4.53;;;;;;;;;;5093810;28;20430;-71
2022/03/20 00:55:01;;;;;;;6.80;4.00;;;;;;;;;;5094103;28;20882;-72
2022/03/20 00:57:27;;;;;;;7.80;4.07;;;;;;;;;;5093879;28;20731;-69
2022/03/20 00:59:54;;;;;;;5.57;4.10;;;;;;;;;;5093575;28;20421;-73
2022/03/20 01:02:21;;;;;;;7.53;4.70;;;;;;;;;;5093635;28;20491;-68
2022/03/20 01:04:48;;;;;;;6.53;3.93;;;;;;;;;;5093932;28;20513;-71
2022/03/20 01:07:14;;;;;;;6.60;4.00;;;;;;;;;;5093680;28;20458;-73
2022/03/20 01:09:41;;;;;;;6.67;4.00;;;;;;;;;;5093233;28;20406;-70
2022/03/20 01:12:10;;;;;;;10.80;4.30;;;;;;;;;;5093504;28;20422;-71
2022/03/20 01:14:36;;;;;;;9.33;3.60;;;;;;;;;;5093700;28;20406;-74
2022/03/20 01:17:02;;;;;;;6.30;3.90;;;;;;;;;;5093678;28;20406;-71
2022/03/20 01:19:29;;;;;;;11.27;4.43;;;;;;;;;;5092902;28;20414;-73
2022/03/20 01:21:55;;;;;;;6.57;3.57;;;;;;;;;;5093637;28;20767;-70
2022/03/20 01:24:27;;;;;;;9.47;4.00;;;;;;;;;;5093799;28;20418;-71
2022/03/20 01:26:53;;;;;;;4.73;3.87;;;;;;;;;;5093644;28;20453;-74
2022/03/20 01:29:19;;;;;;;7.60;3.87;;;;;;;;;;5092894;28;20421;-75
2022/03/20 01:31:45;;;;;;;7.20;4.30;;;;;;;;;;5093238;28;20487;-69
2022/03/20 01:34:11;;;;;;;6.23;3.93;;;;;;;;;;5093326;28;20417;-73
2022/03/20 01:36:38;;;;;;;7.40;4.60;;;;;;;;;;5093290;28;20418;-70
2022/03/20 01:39:04;;;;;;;6.23;3.93;;;;;;;;;;5093098;28;20790;-72
2022/03/20 01:41:30;;;;;;;5.80;3.53;;;;;;;;;;5093119;28;20433;-71
2022/03/20 01:43:57;;;;;;;8.43;4.33;;;;;;;;;;5093379;28;20497;-71
2022/03/20 01:46:23;;;;;;;7.30;4.70;;;;;;;;;;5092915;28;20453;-72
2022/03/20 01:48:50;;;;;;;7.60;4.60;;;;;;;;;;5092504;28;20414;-70
2022/03/20 01:51:17;;;;;;;6.37;3.80;;;;;;;;;;5092604;28;20438;-73
2022/03/20 01:53:43;;;;;;;7.20;4.43;;;;;;;;;;5092343;28;20413;-72
2022/03/20 01:56:10;;;;;;;7.03;4.33;;;;;;;;;;5092752;28;20486;-73
2022/03/20 01:58:36;;;;;;;6.63;4.53;;;;;;;;;;5092417;28;20414;-71
2022/03/20 02:01:03;;;;;;;7.37;4.30;;;;;;;;;;5092320;28;20491;-72
2022/03/20 02:03:32;;;;;;;7.40;3.90;;;;;;;;;;5092693;28;20767;-70
2022/03/20 02:06:01;;;;;;;6.37;4.20;;;;;;;;;;5092463;28;20418;-73
2022/03/20 02:08:27;;;;;;;9.60;4.30;;;;;;;;;;5092598;28;20452;-69
2022/03/20 02:10:54;;;;;;;7.63;3.67;;;;;;;;;;5092405;28;20425;-71
2022/03/20 02:13:23;;;;;;;9.13;4.03;;;;;;;;;;5092567;28;20410;-71
2022/03/20 02:15:52;;;;;;;6.90;4.23;;;;;;;;;;5092432;28;20402;-70
2022/03/20 02:18:19;;;;;;;7.77;4.23;;;;;;;;;;5092410;28;20406;-71
2022/03/20 02:20:46;;;;;;;8.23;4.47;;;;;;;;;;5092030;28;20989;-68
2022/03/20 02:23:13;;;;;;;8.00;4.70;;;;;;;;;;5092803;28;20440;-68
2022/03/20 02:25:46;;;;;;;7.80;4.40;;;;;;;;;;5092283;28;20418;-69
2022/03/20 02:28:12;;;;;;;6.50;4.53;;;;;;;;;;5092372;28;20893;-67
2022/03/20 02:30:38;;;;;;;7.53;4.60;;;;;;;;;;5091701;28;20426;-68
2022/03/20 02:33:04;;;;;;;11.90;4.00;;;;;;;;;;5092482;28;20417;-69
2022/03/20 02:35:33;;;;;;;8.90;5.00;;;;;;;;;;5092234;28;20440;-69
2022/03/20 02:37:59;;;;;;;11.37;4.63;;;;;;;;;;5092357;28;20505;-68
2022/03/20 02:40:25;;;;;;;7.13;4.30;;;;;;;;;;5091327;28;20410;-73
2022/03/20 02:42:54;;;;;;;5.30;3.47;;;;;;;;;;5091870;28;20849;-68
2022/03/20 02:45:28;;;;;;;8.80;4.80;;;;;;;;;;5091823;28;20414;-72
2022/03/20 02:47:54;;;;;;;6.77;4.17;;;;;;;;;;5091721;28;20461;-72
2022/03/20 02:50:21;;;;;;;5.50;3.87;;;;;;;;;;5091299;28;20437;-72
2022/03/20 02:53:04;;;;;;;6.53;4.40;;;;;;;;;;5091836;28;20414;-71
2022/03/20 02:55:37;;;;;;;7.47;4.43;;;;;;;;;;5092103;28;20437;-69
2022/03/20 02:58:04;;;;;;;9.17;3.80;;;;;;;;;;5092007;28;20414;-74
2022/03/20 03:00:32;;;;;;;7.10;4.40;;;;;;;;;;5091299;28;20902;-72
2022/03/20 03:02:59;;;;;;;7.60;4.90;;;;;;;;;;5091811;28;20433;-69
2022/03/20 03:05:27;;;;;;;7.93;4.30;;;;;;;;;;5092701;28;20418;-68
2022/03/20 03:13:26;;;;;;;8.23;5.10;;;;;;;;;;5097847;28;20401;-69
2022/03/20 03:15:52;;;;;;;8.83;4.47;;;;;;;;;;5095977;28;20410;-69
2022/03/20 03:18:20;;;;;;;6.57;3.97;;;;;;;;;;5095949;28;20410;-70
2022/03/20 03:20:47;;;;;;;5.27;3.47;;;;;;;;;;5095615;28;20433;-69
2022/03/20 03:23:14;;;;;;;9.50;4.87;;;;;;;;;;5095843;28;20410;-71
2022/03/20 03:25:40;;;;;;;8.37;4.17;;;;;;;;;;5095737;28;20571;-69
2022/03/20 03:28:10;;;;;;;9.70;4.60;;;;;;;;;;5095613;28;20464;-69
2022/03/20 03:30:37;;;;;;;8.60;4.20;;;;;;;;;;5095203;28;20539;-72
2022/03/20 03:33:03;;;;;;;9.27;4.20;;;;;;;;;;5095577;28;20894;-72
2022/03/20 03:38:15;;;;;;;9.93;4.70;;;;;;;;;;5097170;28;20396;-72
2022/03/20 03:40:43;;;;;;;6.50;4.20;;;;;;;;;;5094919;28;20494;-72
2022/03/20 03:43:09;;;;;;;9.37;5.10;;;;;;;;;;5095430;28;20777;-70
2022/03/20 03:45:38;;;;;;;8.03;4.33;;;;;;;;;;5095373;28;20824;-68
2022/03/20 03:48:05;;;;;;;11.70;4.70;;;;;;;;;;5095369;28;20457;-70
2022/03/20 03:50:31;;;;;;;9.20;4.33;;;;;;;;;;5094734;28;20425;-72
2022/03/20 03:52:57;;;;;;;10.23;5.23;;;;;;;;;;5095236;28;20798;-71
2022/03/20 03:55:23;;;;;;;5.57;3.47;;;;;;;;;;5095216;28;20429;-68
2022/03/20 03:57:50;;;;;;;7.63;4.23;;;;;;;;;;5095209;28;20467;-71
2022/03/20 04:00:18;;;;;;;7.30;4.70;;;;;;;;;;5094511;28;20898;-71
2022/03/20 04:02:44;;;;;;;7.80;4.50;;;;;;;;;;5094768;28;20923;-68
2022/03/20 04:05:10;;;;;;;9.77;4.57;;;;;;;;;;5094922;28;20410;-69
2022/03/20 04:07:36;;;;;;;8.10;4.20;;;;;;;;;;5094819;28;20817;-70
2022/03/20 04:10:06;;;;;;;5.00;3.97;;;;;;;;;;5094479;28;20471;-67
2022/03/20 04:12:33;;;;;;;5.70;3.80;;;;;;;;;;5095954;28;20424;-69
2022/03/20 04:15:02;;;;;;;6.17;4.23;;;;;;;;;;5094927;28;20406;-69
2022/03/20 04:17:31;;;;;;;6.93;4.03;;;;;;;;;;5094775;28;20413;-67
2022/03/20 04:19:58;;;;;;;7.37;4.37;;;;;;;;;;5094335;28;20406;-72
2022/03/20 04:22:25;;;;;;;9.13;4.80;;;;;;;;;;5094554;28;20430;-71
2022/03/20 04:24:51;;;;;;;7.67;4.60;;;;;;;;;;5094553;28;20422;-69
2022/03/20 04:27:17;;;;;;;6.50;3.53;;;;;;;;;;5094457;28;20460;-69
2022/03/20 04:29:43;;;;;;;7.50;4.37;;;;;;;;;;5094122;28;20401;-68
2022/03/20 04:32:11;;;;;;;6.60;4.13;;;;;;;;;;5094383;28;20458;-70
2022/03/20 04:34:37;;;;;;;8.20;4.60;;;;;;;;;;5094469;28;20411;-70
2022/03/20 04:37:06;;;;;;;10.20;4.00;;;;;;;;;;5094418;28;20512;-69
2022/03/20 04:39:33;;;;;;;6.73;3.90;;;;;;;;;;5093789;28;20944;-69
2022/03/20 04:41:59;;;;;;;9.37;4.90;;;;;;;;;;5094253;28;20453;-70
2022/03/20 04:44:25;;;;;;;9.70;5.23;;;;;;;;;;5094216;28;20421;-71
2022/03/20 04:46:52;;;;;;;10.80;4.80;;;;;;;;;;5093914;28;20791;-69
2022/03/20 05:00:18;;;;;;;6.60;4.40;;;;;;;;;;5095009;28;20467;-71
2022/03/20 05:02:45;;;;;;;5.37;3.80;;;;;;;;;;5093751;28;20528;-69
2022/03/20 05:05:11;;;;;;;7.07;4.33;;;;;;;;;;5093788;28;20471;-68
2022/03/20 05:07:37;;;;;;;7.13;4.43;;;;;;;;;;5093610;28;20491;-67
2022/03/20 05:15:33;;;;;;;7.77;4.13;;;;;;;;;;5095005;28;20897;-69
2022/03/20 05:17:59;;;;;;;7.03;4.67;;;;;;;;;;5094763;28;20406;-71
2022/03/20 05:20:26;;;;;;;6.43;4.27;;;;;;;;;;5092756;28;20913;-72
2022/03/20 05:22:52;;;;;;;6.80;4.33;;;;;;;;;;5093387;28;20577;-69
2022/03/20 05:25:18;;;;;;;6.87;4.53;;;;;;;;;;5093242;28;20977;-69
2022/03/20 05:27:45;;;;;;;9.23;4.57;;;;;;;;;;5092707;28;20461;-71
2022/03/20 05:30:11;;;;;;;17.20;4.67;;;;;;;;;;5092418;28;20493;-70
2022/03/20 05:32:39;;;;;;;7.40;4.20;;;;;;;;;;5093095;28;20451;-70
2022/03/20 05:35:06;;;;;;;13.90;4.53;;;;;;;;;;5093191;28;20398;-71
2022/03/20 05:37:32;;;;;;;11.00;4.87;;;;;;;;;;5093132;28;20422;-68
2022/03/20 05:39:59;;;;;;;6.80;4.60;;;;;;;;;;5092710;28;20432;-71
2022/03/20 05:42:25;;;;;;;7.80;4.43;;;;;;;;;;5092999;28;20914;-71
2022/03/20 05:44:51;;;;;;;7.33;4.60;;;;;;;;;;5092705;28;20413;-71
2022/03/20 05:47:17;;;;;;;7.23;4.80;;;;;;;;;;5093012;28;20514;-70
2022/03/20 05:49:44;;;;;;;6.67;4.67;;;;;;;;;;5092470;28;20447;-70
2022/03/20 05:52:11;;;;;;;11.40;4.10;;;;;;;;;;5092704;28;20430;-70
2022/03/20 05:54:37;;;;;;;7.57;4.23;;;;;;;;;;5092927;28;20543;-69
2022/03/20 05:59:49;;;;;;;10.07;5.87;;;;;;;;;;5093818;28;20401;-70
2022/03/20 06:02:16;;;;;;;8.73;4.70;;;;;;;;;;5092494;28;20449;-70
2022/03/20 06:04:42;;;;;;;9.33;5.33;;;;;;;;;;5092864;28;20512;-75
2022/03/20 06:07:08;;;;;;;9.53;5.83;;;;;;;;;;5092753;28;20453;-71
2022/03/20 06:09:35;;;;;;;8.30;5.13;;;;;;;;;;5092219;28;20904;-76
2022/03/20 06:12:01;;;;;;;9.37;5.27;;;;;;;;;;5092524;28;20434;-70
2022/03/20 06:14:27;;;;;;;9.80;5.77;;;;;;;;;;5092453;28;20436;-74
2022/03/20 06:16:54;;;;;;;14.23;5.47;;;;;;;;;;5092422;28;20906;-70
2022/03/20 06:19:20;;;;;;;7.97;5.03;;;;;;;;;;5092108;28;20838;-69
2022/03/20 06:21:47;;;;;;;8.20;5.40;;;;;;;;;;5092261;28;20814;-73
2022/03/20 06:24:13;;;;;;;7.43;5.20;;;;;;;;;;5092460;28;20504;-71
2022/03/20 06:26:39;;;;;;;8.93;5.80;;;;;;;;;;5092283;28;20454;-72
2022/03/20 06:29:06;;;;;;;11.97;5.60;;;;;;;;;;5091747;28;20417;-71
2022/03/20 06:31:32;;;;;;;16.30;5.80;;;;;;;;;;5092190;28;20432;-73
2022/03/20 06:33:59;;;;;;;112.73;6.67;;;;;;;;;;5092245;28;20424;-71
2022/03/20 06:36:25;;;;;;;20.83;5.50;;;;;;;;;;5093434;28;20402;-72
2022/03/20 06:38:51;;;;;;;10.30;5.97;;;;;;;;;;5091744;28;20448;-69
2022/03/20 06:41:20;;;;;;;6.90;4.73;;;;;;;;;;5091058;28;20750;-70
2022/03/20 06:43:46;;;;;;;7.50;4.23;;;;;;;;;;5091987;28;20420;-69
2022/03/20 06:46:12;;;;;;;6.77;4.00;;;;;;;;;;5091928;28;20467;-73
2022/03/20 06:48:38;;;;;;;8.07;4.40;;;;;;;;;;5091602;28;20406;-70
2022/03/20 06:51:04;;;;;;;7.67;4.50;;;;;;;;;;5091711;28;20425;-69
2022/03/20 06:53:32;;;;;;;7.60;5.10;;;;;;;;;;5092065;28;20511;-70
2022/03/20 06:55:58;;;;;;;9.03;4.43;;;;;;;;;;5091938;28;20489;-73
2022/03/20 06:58:24;;;;;;;16.20;5.33;;;;;;;;;;5091728;28;20413;-71
2022/03/20 07:00:50;;;;;;;10.40;6.10;;;;;;;;;;5091517;28;20441;-72
2022/03/20 07:03:17;;;;;;;14.73;6.53;;;;;;;;;;5091775;28;20461;-73
2022/03/20 07:05:43;;;;;;;9.47;5.90;;;;;;;;;;5091872;28;20489;-70
2022/03/20 07:08:09;;;;;;;24.63;9.50;;;;;;;;;;5091603;28;20464;-74
2022/03/20 07:10:36;;;;;;;26.00;14.60;;;;;;;;;;5091247;28;21145;-73
2022/03/20 07:15:49;;;;;;;23.67;11.33;;;;;;;;;;5093332;28;20436;-68
2022/03/20 07:18:16;;;;;;;26.43;10.87;;;;;;;;;;5091670;28;20416;-77
2022/03/20 07:20:44;;;;;;;23.40;11.97;;;;;;;;;;5091109;28;20434;-73
2022/03/20 07:23:10;;;;;;;21.60;10.90;;;;;;;;;;5091660;28;20416;-71
2022/03/20 07:31:20;;;;;;;26.77;12.37;;;;;;;;;;5047712;28;20449;-71
2022/03/20 07:33:48;;;;;;;20.73;11.23;;;;;;;;;;5091492;28;20923;-69
2022/03/20 07:36:14;;;;;;;30.47;13.23;;;;;;;;;;5091554;28;20909;-71
2022/03/20 07:38:41;;;;;;;23.20;12.27;;;;;;;;;;5091275;28;20398;-70
2022/03/20 07:41:07;;;;;;;20.47;11.67;;;;;;;;;;5091337;28;20434;-73
2022/03/20 07:43:33;;;;;;;26.23;12.47;;;;;;;;;;5091493;28;20414;-75
2022/03/20 07:46:00;;;;;;;23.67;13.10;;;;;;;;;;5091404;28;20438;-74
2022/03/20 07:48:26;;;;;;;27.53;11.40;;;;;;;;;;5091040;28;20518;-71
2022/03/20 07:50:52;;;;;;;23.40;12.90;;;;;;;;;;5091214;28;20483;-69
2022/03/20 07:53:18;;;;;;;27.63;11.33;;;;;;;;;;5095071;28;20406;-76
2022/03/20 07:55:45;;;;;;;20.70;11.60;;;;;;;;;;5095153;28;20406;-72
2022/03/20 07:58:12;;;;;;;28.03;11.83;;;;;;;;;;5095045;28;20406;-73
2022/03/20 08:00:41;;;;;;;64.38;12.23;;;21.40;39.80;;;;;;5094152;28;20494;-70
2022/03/20 08:03:07;;;;;;;25.87;11.40;;;21.60;40.50;;;;;;5094864;28;20425;-72
2022/03/20 08:05:33;;;;;;;22.40;10.77;;;21.70;40.50;;;;;;5094848;28;20409;-74
2022/03/20 08:08:02;;;;;;;19.20;10.40;;;21.80;41.00;;;;;;5094835;28;20207;-74
2022/03/20 08:10:28;;;;;;;21.20;10.70;;;21.80;40.50;;;;;;5094418;28;20168;-70
2022/03/20 08:12:54;;;;;;;20.63;10.10;;;21.80;40.60;;;;;;5094814;28;20398;-72
2022/03/20 08:15:20;;;;;;;20.10;11.40;;;21.80;40.30;;;;;;5094860;28;20401;-72
2022/03/20 08:17:47;;;;;;;28.47;11.17;;;21.80;40.30;;;;;;5094746;28;20168;-72
2022/03/20 08:20:14;;;;;;;21.00;11.40;;;21.70;40.10;;;;;;5094213;28;20223;-69
2022/03/20 08:22:40;;;;;;;41.73;11.90;;;;;;;;;;5094829;28;20421;-72
2022/03/20 08:25:08;;;;;;;22.10;10.30;;;;;;;;;;5094630;28;20417;-70
2022/03/20 08:27:49;;;;;;;26.37;11.60;;;21.70;39.40;;;;;;5094463;28;20546;-73
2022/03/20 08:30:17;;;;;;;19.67;11.03;;;21.70;39.70;;;;;;5094021;28;20414;-69
2022/03/20 08:32:43;;;;;;;25.87;9.87;;;21.70;39.90;;;;;;5094433;28;20520;-69
2022/03/20 08:35:13;;;;;;;27.70;10.67;;;21.70;39.90;;;;;;5094444;28;20963;-73
2022/03/20 08:37:44;;;;;;;20.47;10.40;;;21.80;40.40;;;;;;5094099;28;20511;-69
2022/03/20 08:40:15;;;;;;;28.43;9.00;;;21.70;39.80;;;;;;5093964;28;20405;-75
2022/03/20 08:42:43;;;;;;;19.33;10.40;;;21.80;40.80;;;;;;5094214;28;20416;-70
2022/03/20 08:45:09;;;;;;;17.60;10.37;;;21.80;40.20;;;;;;5094072;28;20414;-71
2022/03/20 08:47:36;;;;;;;19.37;8.43;;;21.80;40.60;;;;;;5094028;28;20511;-70
2022/03/20 08:50:01;;;;;;;14.93;9.40;;;21.80;41.10;;;;;;5093646;28;20828;-74
2022/03/20 08:52:27;;;;;;;17.17;10.23;;;21.80;39.80;;;;;;5094015;28;20418;-73
2022/03/20 08:54:52;;;;;;;24.20;9.80;;;21.80;39.30;;;;;;5093937;28;20168;-73
2022/03/20 08:57:19;;;;;;;17.53;9.60;;;21.80;39.50;;;;;;5093845;28;20707;-71
2022/03/20 08:59:44;;;;;;;13.37;8.30;;;21.80;39.40;;;;;;5093490;28;20493;-69
2022/03/20 09:02:10;;;;;;;19.57;8.80;;;21.80;40.70;;;;;;5093698;28;20467;-70
2022/03/20 09:04:36;;;;;;;15.87;9.00;;;21.80;40.50;;;;;;5092965;28;20574;-71
2022/03/20 09:07:01;;;;;;;20.20;8.20;;;21.90;40.50;;;;;;5093615;28;20575;-71
2022/03/20 09:09:27;;;;;;;19.77;8.63;;;21.90;40.90;;;;;;5093443;28;20222;-69
2022/03/20 09:11:53;;;;;;;16.47;7.50;;;21.80;39.70;;;;;;5095065;28;20205;-71
2022/03/20 09:14:18;;;;;;;17.40;7.77;;;21.90;40.80;;;;;;5093625;28;20255;-74
2022/03/20 09:19:28;;;;;;;19.90;8.60;;;22.00;40.60;;;;;;5094689;28;20178;-75
2022/03/20 09:21:53;;;;;;;15.57;8.50;;;22.00;39.90;;;;;;5093371;28;20512;-70
2022/03/20 09:24:19;;;;;;;11.53;7.70;;;21.80;37.90;;;;;;5093458;28;20176;-72
2022/03/20 09:26:45;;;;;;;12.30;8.00;;;21.80;39.80;;;;;;5093347;28;20672;-68
2022/03/20 09:29:10;;;;;;;14.07;8.10;;;21.80;40.20;;;;;;5092950;28;20202;-71
2022/03/20 09:31:36;;;;;;;17.53;8.60;;;21.90;40.40;;;;;;5093307;28;20226;-71
2022/03/20 09:34:02;;;;;;;13.77;7.30;;;21.90;39.60;;;;;;5093312;28;20172;-70
2022/03/20 09:36:29;;;;;;;13.57;8.20;;;22.00;40.40;;;;;;5093185;28;20511;-70
2022/03/20 09:38:54;;;;;;;12.80;6.93;;;21.90;40.00;;;;;;5092826;28;20254;-68
2022/03/20 09:41:29;;;;;;;10.27;6.17;;;22.00;40.60;;;;;;5093069;28;20517;-73
2022/03/20 09:43:55;;;;;;;14.03;8.10;;;21.90;40.30;;;;;;5093067;28;20531;-69
2022/03/20 09:46:21;;;;;;;12.80;7.50;;;21.90;40.40;;;;;;5092941;28;20409;-73
2022/03/20 09:48:47;;;;;;;12.03;6.80;;;21.90;40.60;;;;;;5092662;28;20179;-68
2022/03/20 09:51:13;;;;;;;12.73;7.07;;;21.90;40.60;;;;;;5092757;28;20432;-69
2022/03/20 09:53:39;;;;;;;11.90;6.83;;;21.90;40.60;;;;;;5092945;28;20414;-68
2022/03/20 09:56:10;;;;;;;10.00;5.90;;;21.90;40.60;;;;;;5092915;28;20202;-71
2022/03/20 09:58:35;;;;;;;9.97;6.60;;;21.90;40.70;;;;;;5092498;28;20430;-73
2022/03/20 10:01:02;;;;;;;11.53;6.50;;;21.90;40.60;;;;;;5092410;28;20442;-72
2022/03/20 10:03:28;;;;;;;12.70;6.87;;;21.90;40.70;;;;;;5092845;28;20528;-70
2022/03/20 10:06:16;;;;;;;10.50;6.93;;;21.90;40.70;;;;;;5092618;28;20406;-74
2022/03/20 10:08:58;;;;;;;13.73;6.90;;;21.90;40.50;;;;;;5092458;28;20414;-70
2022/03/20 10:11:26;;;;;;;13.67;7.87;;;21.90;39.80;;;;;;5092498;28;21012;-73
2022/03/20 10:14:17;;;;;;;12.80;8.33;;;21.80;39.00;;;;;;5092580;28;20406;-73
2022/03/20 10:17:09;;;;;;;12.70;7.00;;;21.80;39.20;;;;;;5092430;28;20421;-69
2022/03/20 10:19:35;;;;;;;13.00;7.97;;;21.80;39.20;;;;;;5083763;28;20442;-71
2022/03/20 10:22:09;;;;;;;9.77;6.87;;;21.80;38.90;;;;;;5092434;28;20458;-72
2022/03/20 10:24:40;;;;;;;13.17;7.37;;;21.80;39.00;;;;;;5092314;28;20182;-71
2022/03/20 10:27:13;;;;;;;12.93;7.50;;;21.80;38.50;;;;;;5092276;28;20964;-69
2022/03/20 10:30:00;;;;;;;13.57;7.73;;;21.80;39.00;;;;;;5091980;28;20413;-69
2022/03/20 10:32:26;;;;;;;13.73;6.83;;;21.90;38.60;;;;;;5092158;28;20525;-68
2022/03/20 10:34:53;;;;;;;13.53;7.33;;;22.00;39.60;;;;;;5092054;28;20441;-68
2022/03/20 10:37:21;;;;;;;11.87;7.00;;;22.10;39.50;;;;;;5092092;28;20421;-71
2022/03/20 10:39:47;;;;;;;9.00;5.87;;;22.20;39.80;;;;;;5091718;28;20414;-69
2022/03/20 10:42:14;;;;;;;9.40;5.90;;;22.20;39.90;;;;;;5092083;28;20865;-68
2022/03/20 10:44:40;;;;;;;11.33;6.80;;;22.30;39.90;;;;;;5092072;28;20199;-71
2022/03/20 10:47:13;;;;;;;9.07;5.70;;;22.30;39.80;;;;;;5091842;28;20550;-71
2022/03/20 10:49:41;;;;;;;10.70;6.77;;;22.30;40.00;;;;;;5091609;28;20902;-69
2022/03/20 10:52:11;;;;;;;9.87;5.97;;;22.20;40.10;;;;;;5093326;28;20501;-71
2022/03/20 10:54:51;;;;;;;10.77;6.63;;;22.20;40.00;;;;;;5091955;28;20778;-69
2022/03/20 10:57:18;;;;;;;9.77;6.53;;;22.20;40.10;;;;;;5091964;28;20414;-73
2022/03/20 11:00:00;;;;;;;7.57;5.10;;;22.20;40.00;;;;;;5091380;28;20425;-66
2022/03/20 11:02:26;;;;;;;9.90;5.30;;;22.30;40.00;;;;;;5091567;28;20840;-68
2022/03/20 11:04:53;;;;;;;11.10;5.23;;;22.30;40.00;;;;;;5091807;28;20413;-69
2022/03/20 11:07:19;;;;;;;8.00;5.10;;;22.40;40.60;;;;;;5091714;28;20458;-71
2022/03/20 11:09:52;;;;;;;11.03;5.30;;;22.40;39.90;;;;;;5091422;28;20412;-71
2022/03/20 11:12:34;;;;;;;8.83;5.43;;;22.50;40.00;;;;;;5091553;28;20780;-67
2022/03/20 11:15:03;;;;;;;8.80;5.50;;;22.50;40.00;;;;;;5091731;28;20417;-70
2022/03/20 11:17:43;;;;;;;9.70;5.00;;;22.50;40.00;;;;;;5091496;28;20420;-71
2022/03/20 11:20:15;;;;;;;8.07;5.20;;;22.50;40.00;;;;;;5091268;28;20401;-72
2022/03/20 11:22:50;;;;;;;11.40;5.00;;;22.50;40.00;;;;;;5091667;28;20409;-72
2022/03/20 11:25:21;;;;;;;10.60;5.23;;;22.50;40.00;;;;;;5091586;28;20412;-73
2022/03/20 11:27:55;;;;;;;11.47;4.30;;;22.50;40.20;;;;;;5094693;28;20506;-70
2022/03/20 11:30:27;;;;;;;12.90;5.23;;;22.50;40.30;;;;;;5095282;28;20496;-71
2022/03/20 11:32:56;;;;;;;11.37;4.80;;;22.50;40.50;;;;;;5095582;28;20425;-68
2022/03/20 11:35:28;;;;;;;11.93;4.80;;;22.50;40.80;;;;;;5095534;28;20438;-70
2022/03/20 11:37:58;;;;;;;14.80;5.37;;;22.50;40.90;;;;;;5095692;28;20475;-68
2022/03/20 11:40:26;;;;;;;14.60;4.70;;;22.50;40.80;;;;;;5094857;28;20410;-67
2022/03/20 11:43:11;;;;;;;11.30;5.30;;;22.60;40.70;;;;;;5095858;28;20944;-68
2022/03/20 11:45:38;;;;;;;26.83;5.33;;;22.60;40.50;;;;;;5081463;28;20414;-70
2022/03/20 11:48:16;;;;;;;8.23;5.47;;;22.60;40.40;;;;;;5095317;28;20453;-69
2022/03/20 11:50:43;;;;;;;8.13;4.57;;;22.60;40.40;;;;;;5095948;28;20512;-69
2022/03/20 11:53:10;;;;;;;10.00;5.37;;;22.60;40.50;;;;;;5095223;28;20413;-69
2022/03/20 11:55:51;;;;;;;9.70;4.50;;;22.60;40.40;;;;;;5094958;28;20428;-71
2022/03/20 11:58:16;;;;;;;10.07;4.13;;;22.60;40.40;;;;;;5095030;28;20439;-69
2022/03/20 12:00:45;;;;;;;6.17;4.50;;;22.60;40.40;;;;;;5094500;28;20434;-70
2022/03/20 12:03:14;;;;;;;15.53;4.73;;;22.60;41.00;;;;;;5094786;28;20785;-71
2022/03/20 12:06:01;;;;;;;8.33;4.30;;;22.60;40.40;;;;;;5094925;28;20463;-73
2022/03/20 12:09:02;;;;;;;9.50;4.63;;;22.60;40.40;;;;;;5091792;28;20960;-70
2022/03/20 12:11:53;;;;;;;9.53;4.30;;;22.50;40.40;;;;;;5094640;28;20440;-69
2022/03/20 12:14:32;;;;;;;8.83;4.40;;;22.50;40.30;;;;;;5092931;28;20862;-70
2022/03/20 12:16:59;;;;;;;8.83;4.20;;;22.50;40.40;;;;;;5094865;28;20406;-70
2022/03/20 12:19:42;;;;;;;8.83;4.63;;;22.50;40.30;;;;;;5093862;28;20910;-70
2022/03/20 12:22:15;;;;;;;10.63;4.53;;;22.50;40.30;;;;;;5094606;28;20564;-71
2022/03/20 12:24:55;;;;;;;10.10;5.20;;;22.50;40.30;;;;;;5094653;28;20438;-68
2022/03/20 12:27:24;;;;;;;7.20;4.20;;;22.50;40.40;;;;;;5094473;28;20514;-69
2022/03/20 12:29:53;;;;;;;10.43;4.23;;;22.50;40.40;;;;;;5094025;28;20406;-70
2022/03/20 12:32:23;;;;;;;8.00;4.17;;;22.50;40.40;;;;;;5094409;28;20849;-71
2022/03/20 12:34:58;;;;;;;6.80;4.00;;;22.50;40.40;;;;;;5095721;28;20471;-69
2022/03/20 12:37:30;;;;;;;11.47;4.67;;;22.40;40.30;;;;;;5093712;28;20482;-69
2022/03/20 12:40:09;;;;;;;6.60;4.47;;;22.40;40.30;;;;;;5093214;28;20436;-72
2022/03/20 12:42:38;;;;;;;10.23;4.20;;;22.40;40.30;;;;;;5093967;28;20444;-68
2022/03/20 12:45:07;;;;;;;7.20;3.90;;;22.40;40.40;;;;;;5093938;28;20901;-68
2022/03/20 12:47:33;;;;;;;14.50;4.17;;;22.40;40.40;;;;;;5093787;28;20457;-74
2022/03/20 12:50:05;;;;;;;9.63;4.00;;;22.40;40.40;;;;;;5093416;28;20808;-72
2022/03/20 12:52:33;;;;;;;10.57;3.97;;;22.30;40.40;;;;;;5093725;28;20267;-73
2022/03/20 12:55:00;;;;;;;10.20;4.10;;;;;;;;;;5093976;28;20410;-72
2022/03/20 12:57:38;;;;;;;15.40;3.77;;;;;;;;;;5095236;28;20442;-68
2022/03/20 13:00:07;;;;;;;10.60;4.33;;;;;;;;;;5092783;28;20507;-71
2022/03/20 13:02:34;;;;;;;9.93;4.20;;;;;;;;;;5089216;28;20810;-72
2022/03/20 13:05:10;;;;;;;8.73;4.10;;;;;;;;;;5086826;28;20419;-68
2022/03/20 13:07:39;;;;;;;10.10;3.40;;;;;;;;;;5086405;28;20549;-69
2022/03/20 13:10:05;;;;;;;10.23;3.93;;;;;;;;;;5084724;28;20411;-69
2022/03/20 13:12:51;;;;;;;13.27;4.63;;;;;;;;;;5083913;28;20492;-70
2022/03/20 13:15:44;;;;;;;8.97;4.23;;;;;;;;;;5092574;28;20416;-72
2022/03/20 13:18:11;;;;;;;8.53;4.37;;;;;;;;;;5089399;28;20438;-71
2022/03/20 13:20:44;;;;;;;8.90;4.10;;;;;;;;;;5093727;28;20790;-68
2022/03/20 13:23:15;;;;;;;7.40;4.20;;;;;;;;;;5084595;28;20441;-69
2022/03/20 13:25:45;;;;;;;6.93;4.30;;;;;;;;;;5073167;28;20429;-69
2022/03/20 13:28:25;;;;;;;6.00;3.70;;;;;;;;;;5086098;28;20553;-71
2022/03/20 13:30:51;;;;;;;12.17;3.60;;;;;;;;;;5091150;28;20445;-71
2022/03/20 13:33:27;;;;;;;6.23;3.87;;;;;;;;;;5088393;28;20429;-69
2022/03/20 13:35:53;;;;;;;7.00;3.93;;;;;;;;;;5073171;28;20445;-70
2022/03/20 13:38:20;;;;;;;10.23;4.17;;;;;;;;;;5072818;28;20415;-68
2022/03/20 13:40:46;;;;;;;8.17;4.00;;;;;;;;;;5072603;28;20466;-68
2022/03/20 13:43:22;;;;;;;8.20;3.70;;;;;;;;;;5072858;28;20450;-69
2022/03/20 13:45:49;;;;;;;5.90;3.70;;;;;;;;;;5072951;28;20423;-70
2022/03/20 13:48:17;;;;;;;5.67;3.90;;;;;;;;;;5072657;28;20962;-68
2022/03/20 13:50:43;;;;;;;7.10;4.13;;;;;;;;;;5071853;28;20427;-72
2022/03/20 13:53:10;;;;;;;8.87;4.73;;;;;;;;;;5072274;28;20411;-68
2022/03/20 13:55:38;;;;;;;6.50;3.70;;;;;;;;;;5072614;28;20407;-69
2022/03/20 13:58:06;;;;;;;6.60;4.07;;;;;;;;;;5072590;28;20903;-70
2022/03/20 14:00:35;;;;;;;5.30;3.53;;;;;;;;;;5071974;28;20460;-69
2022/03/20 14:03:02;;;;;;;8.40;4.40;;;;;;;;;;5072422;28;20791;-71
2022/03/20 14:05:28;;;;;;;8.07;4.50;;;;;;;;;;5072485;28;20446;-68
2022/03/20 14:08:13;;;;;;;6.50;3.83;;;;;;;;;;5072234;28;20461;-72
2022/03/20 14:10:53;;;;;;;6.53;3.87;;;;;;;;;;5071903;28;20431;-72
2022/03/20 14:13:19;;;;;;;6.37;3.80;;;;;;;;;;5072275;28;20459;-71
2022/03/20 14:16:06;;;;;;;5.97;3.63;;;;;;;;;;5072154;28;20495;-70
2022/03/20 14:18:36;;;;;;;6.17;4.20;;;;;;;;;;5071864;28;20498;-69
2022/03/20 14:21:16;;;;;;;7.13;3.50;;;;;;;;;;5072151;28;20438;-69
2022/03/20 14:24:01;;;;;;;5.60;3.30;;;;;;;;;;5072230;28;20402;-71
2022/03/20 14:26:28;;;;;;;5.60;3.40;;;;;;;;;;5071980;28;20422;-73
2022/03/20 14:29:09;;;;;;;4.53;3.53;;;;;;;;;;5071675;28;20442;-69
2022/03/20 14:40:08;;;;;;;7.30;3.90;;;;;;;;;;5073199;28;20418;-69
2022/03/20 14:42:34;;;;;;;5.27;3.37;;;;;;;;;;5071784;28;20499;-70
2022/03/20 14:45:04;;;;;;;6.60;3.50;;;;;;;;;;5071893;28;20415;-72
2022/03/20 14:47:30;;;;;;;8.00;4.00;;;;;;;;;;5071792;28;20486;-69
2022/03/20 14:49:56;;;;;;;5.90;4.33;;;;;;;;;;5071291;28;20399;-69